Polmont, United Kingdom
Current Conditions -  °F | °C
As of 4:50 AM on Wednesday 22 Oct 2014 (Local Time) from EGPH Reporting Station
Broken Clouds Broken Clouds  
Wind Chill: 40°   Ceiling: 4400
Heat Index: 46°   Visibility: 6mi
Dew Point: 39°   Wind: 14mph
Humidity: 76%   Direction: 250°WSW
Pressure: 30.03"   Gusts: NA
Location:  55.99°N, 3.71°W
Report Text: EGPH 220350Z 25012KT 9999 BKN044 08/04 Q1017
Loading
Personal Weather Stations






























Interactive Weather Map
Tropical Storm Tracking
New forecast layout! Learn more

10-Day Weather Forecast

Advertisements
Track Severe Weather on mobile